Terminal Aerodrome Forecast
Issued by NWS

Home | Current Version | Previous Version | Text Only | Print | Product List | Glossary Off
Versions: 1 2 3 4 5 6 7 8 9 10 11 12 13 14 15

000
FTUS43 KICT 231636 AAB
TAFCNU
TAF AMD
KCNU 231636Z 2317/2412 19013KT P6SM OVC015
     FM231800 19008KT P6SM SCT015 BKN025
     FM240000 33023G30KT P6SM -RA SCT015 BKN025
     FM240500 31017KT P6SM SCT025 BKN060
     FM240900 29013KT P6SM FEW250=

USA.gov is the U.S. government's official web portal to all federal, state and local government web resources and services.